createdAt,value
2023-02-17T00:01:02.954Z,67.20
2023-02-17T00:03:34.924Z,47.40
2023-02-17T00:06:10.910Z,65.20
2023-02-17T00:08:43.064Z,68.00
2023-02-17T00:11:15.391Z,68.00
2023-02-17T00:13:49.788Z,66.80
2023-02-17T00:16:23.453Z,70.80
2023-02-17T00:18:58.458Z,70.10
2023-02-17T00:21:32.226Z,72.30
2023-02-17T00:24:04.174Z,65.00
2023-02-17T00:26:38.236Z,49.60
2023-02-17T00:29:10.586Z,62.10
2023-02-17T00:31:42.495Z,59.90
2023-02-17T00:34:14.802Z,61.50
2023-02-17T00:36:46.790Z,67.10
2023-02-17T00:39:19.048Z,65.00
2023-02-17T00:41:54.210Z,64.00
2023-02-17T00:44:27.178Z,62.00
2023-02-17T00:46:58.925Z,58.00
2023-02-17T00:49:30.723Z,44.10
2023-02-17T00:52:03.607Z,65.10
2023-02-17T00:54:39.357Z,56.50
2023-02-17T00:59:41.302Z,55.40
2023-02-17T01:02:13.651Z,66.50
2023-02-17T01:04:45.607Z,62.20
2023-02-17T01:07:20.040Z,59.30
2023-02-17T01:09:52.284Z,60.30
2023-02-17T01:12:24.166Z,60.60
2023-02-17T01:17:28.917Z,56.90
2023-02-17T01:20:01.167Z,63.00
2023-02-17T01:22:32.998Z,58.00
2023-02-17T01:25:05.384Z,47.80
2023-02-17T01:27:38.322Z,64.10
2023-02-17T01:30:12.009Z,58.70
2023-02-17T01:32:44.132Z,60.50
2023-02-17T01:35:16.213Z,61.80
2023-02-17T01:37:49.863Z,59.40
2023-02-17T01:40:21.469Z,57.40
2023-02-17T01:42:53.483Z,63.30
2023-02-17T01:45:43.040Z,58.00
2023-02-17T01:48:18.794Z,57.60
2023-02-17T01:50:54.044Z,58.70
2023-02-17T01:53:31.672Z,53.20
2023-02-17T01:56:04.979Z,56.20
2023-02-17T01:58:39.130Z,65.20
2023-02-17T02:01:11.446Z,63.60
2023-02-17T02:03:43.433Z,65.70
2023-02-17T02:06:21.760Z,56.60
2023-02-17T02:09:00.493Z,58.70
2023-02-17T02:11:34.097Z,63.40
2023-02-17T02:14:08.963Z,63.00
2023-02-17T02:16:50.467Z,59.90
2023-02-17T02:19:53.313Z,60.70
2023-02-17T02:22:41.223Z,56.80
2023-02-17T02:25:29.690Z,63.40
2023-02-17T02:28:16.269Z,63.20
2023-02-17T02:31:15.189Z,52.20
2023-02-17T02:33:51.736Z,58.10
2023-02-17T02:36:29.661Z,60.40
2023-02-17T02:39:05.722Z,55.80
2023-02-17T02:41:42.272Z,57.70
2023-02-17T02:44:19.834Z,60.50
2023-02-17T02:47:00.971Z,55.40
2023-02-17T02:49:35.276Z,60.70
2023-02-17T02:52:17.205Z,50.50
2023-02-17T02:55:00.308Z,59.00
2023-02-17T02:57:48.568Z,57.00
2023-02-17T03:00:26.164Z,55.20
2023-02-17T03:03:04.054Z,57.80
2023-02-17T03:05:45.721Z,57.10
2023-02-17T03:08:21.296Z,61.10
2023-02-17T03:10:55.383Z,60.50
2023-02-17T03:13:27.891Z,51.90
2023-02-17T03:15:59.839Z,53.80
2023-02-17T03:18:34.553Z,44.20
2023-02-17T03:21:15.373Z,55.30
2023-02-17T03:23:47.427Z,53.80
2023-02-17T03:26:19.191Z,51.70
2023-02-17T03:28:51.177Z,53.90
2023-02-17T03:31:23.550Z,38.00
2023-02-17T03:36:26.051Z,49.60
2023-02-17T03:38:58.142Z,48.80
2023-02-17T03:41:30.119Z,53.60
2023-02-17T03:44:01.838Z,51.80
2023-02-17T03:46:33.625Z,52.10
2023-02-17T03:49:05.330Z,48.20
2023-02-17T03:51:37.222Z,48.10
2023-02-17T03:54:08.975Z,39.80
2023-02-17T03:56:47.906Z,61.10
2023-02-17T03:59:19.781Z,55.10
2023-02-17T04:01:51.522Z,54.30
2023-02-17T04:04:23.328Z,51.90
2023-02-17T04:06:55.099Z,50.90
2023-02-17T04:09:26.923Z,51.10
2023-02-17T04:11:58.892Z,47.90
2023-02-17T04:14:31.295Z,49.70
2023-02-17T04:17:05.985Z,55.00
2023-02-17T04:19:37.870Z,52.80
2023-02-17T04:22:09.788Z,41.80
2023-02-17T04:24:43.601Z,48.10
2023-02-17T04:27:15.357Z,48.60
2023-02-17T04:29:47.000Z,42.30
2023-02-17T04:32:18.978Z,48.50
2023-02-17T04:34:50.720Z,40.10
2023-02-17T04:37:22.542Z,36.50
2023-02-17T04:39:54.573Z,38.40
2023-02-17T04:42:26.541Z,53.70
2023-02-17T04:44:58.280Z,57.70
2023-02-17T04:47:30.466Z,61.00
2023-02-17T04:50:02.503Z,55.70
2023-02-17T04:52:34.222Z,41.50
2023-02-17T04:55:07.406Z,56.40
2023-02-17T04:57:39.134Z,55.50
2023-02-17T05:00:13.429Z,60.10
2023-02-17T05:02:45.142Z,54.10
2023-02-17T05:05:18.890Z,57.70
2023-02-17T05:07:50.897Z,55.40
2023-02-17T05:10:24.142Z,55.90
2023-02-17T05:12:56.350Z,54.30
2023-02-17T05:15:28.083Z,56.60
2023-02-17T05:17:59.812Z,55.10
2023-02-17T05:20:31.852Z,44.80
2023-02-17T05:23:03.619Z,57.80
2023-02-17T05:25:35.421Z,59.10
2023-02-17T05:28:07.200Z,57.40
2023-02-17T05:30:38.916Z,40.70
2023-02-17T05:33:10.657Z,55.70
2023-02-17T05:35:42.382Z,58.30
2023-02-17T05:38:14.197Z,59.40
2023-02-17T05:40:46.048Z,37.10
2023-02-17T05:43:17.942Z,51.60
2023-02-17T05:45:49.660Z,41.40
2023-02-17T05:48:21.397Z,58.20
2023-02-17T05:50:53.123Z,61.00
2023-02-17T05:53:24.950Z,56.20
2023-02-17T05:55:56.886Z,58.80
2023-02-17T05:58:28.656Z,53.70
2023-02-17T06:01:00.770Z,57.30
2023-02-17T06:03:32.950Z,51.20
2023-02-17T06:06:05.553Z,56.90
2023-02-17T06:08:39.277Z,59.80
2023-02-17T06:11:11.532Z,63.10
2023-02-17T06:13:43.467Z,59.50
2023-02-17T06:16:15.591Z,44.50
2023-02-17T06:18:47.340Z,61.90
2023-02-17T06:21:19.114Z,58.60
2023-02-17T06:23:50.844Z,42.40
2023-02-17T06:26:22.577Z,60.40
2023-02-17T06:28:54.682Z,56.50
2023-02-17T06:31:27.106Z,62.90
2023-02-17T06:33:59.020Z,41.70
2023-02-17T06:36:30.799Z,42.90
2023-02-17T06:39:02.471Z,43.20
2023-02-17T06:41:34.714Z,73.30
2023-02-17T06:44:06.984Z,64.40
2023-02-17T06:46:38.775Z,55.30
2023-02-17T06:49:10.529Z,65.60
2023-02-17T06:51:42.626Z,44.30
2023-02-17T06:54:14.677Z,42.70
2023-02-17T06:56:46.484Z,66.30
2023-02-17T06:59:18.606Z,67.80
2023-02-17T07:01:50.788Z,66.40
2023-02-17T07:04:22.630Z,67.80
2023-02-17T07:06:54.420Z,45.10
2023-02-17T07:09:26.223Z,62.20
2023-02-17T07:11:58.705Z,48.60
2023-02-17T07:14:30.988Z,67.40
2023-02-17T07:17:03.329Z,75.30
2023-02-17T07:19:35.171Z,64.10
2023-02-17T07:22:06.978Z,68.30
2023-02-17T07:24:38.781Z,66.70
2023-02-17T07:27:11.022Z,67.80
2023-02-17T07:29:43.440Z,58.80
2023-02-17T07:32:15.123Z,61.60
2023-02-17T07:34:46.882Z,64.60
2023-02-17T07:37:20.044Z,65.60
2023-02-17T07:39:52.328Z,57.50
2023-02-17T07:42:24.490Z,64.00
2023-02-17T07:44:57.669Z,55.10
2023-02-17T07:47:30.142Z,56.50
2023-02-17T07:50:02.000Z,59.80
2023-02-17T07:52:35.509Z,65.80
2023-02-17T07:55:07.894Z,60.70
2023-02-17T07:57:39.561Z,65.40
2023-02-17T08:00:13.456Z,62.30
2023-02-17T08:02:46.049Z,58.50
2023-02-17T08:05:18.134Z,67.30
2023-02-17T08:08:09.850Z,63.60
2023-02-17T08:11:14.791Z,57.60
2023-02-17T08:13:47.486Z,67.60
2023-02-17T08:16:19.526Z,57.20
2023-02-17T08:18:51.271Z,68.90
2023-02-17T08:21:23.264Z,70.60
2023-02-17T08:23:56.162Z,67.90
2023-02-17T08:26:28.766Z,67.90
2023-02-17T08:29:00.885Z,63.60
2023-02-17T08:31:36.188Z,47.70
2023-02-17T08:34:09.924Z,63.40
2023-02-17T08:36:42.649Z,63.90
2023-02-17T08:39:17.582Z,70.70
2023-02-17T08:41:49.701Z,59.30
2023-02-17T08:44:22.961Z,69.50
2023-02-17T08:46:55.207Z,58.90
2023-02-17T08:49:30.092Z,64.70
2023-02-17T08:52:02.313Z,72.30
2023-02-17T08:54:34.727Z,65.50
2023-02-17T08:57:06.514Z,49.50
2023-02-17T08:59:38.440Z,62.80
2023-02-17T09:02:11.612Z,65.40
2023-02-17T09:04:44.317Z,63.60
2023-02-17T09:09:47.911Z,65.00
2023-02-17T09:12:20.200Z,49.10
2023-02-17T09:14:52.300Z,63.00
2023-02-17T09:17:25.881Z,66.20
2023-02-17T09:19:57.867Z,44.10
2023-02-17T09:22:32.238Z,47.30
2023-02-17T09:25:05.017Z,53.60
2023-02-17T09:27:36.749Z,61.50
2023-02-17T09:30:11.203Z,58.10
2023-02-17T09:32:44.820Z,56.60
2023-02-17T09:35:18.640Z,59.80
2023-02-17T09:37:50.501Z,58.40
2023-02-17T09:40:25.664Z,41.90
2023-02-17T09:42:57.595Z,57.40
2023-02-17T09:45:35.022Z,53.10
2023-02-17T09:48:11.947Z,53.00
2023-02-17T09:50:46.675Z,54.00
2023-02-17T09:53:25.074Z,51.70
2023-02-17T09:55:59.171Z,52.10
2023-02-17T09:58:37.434Z,46.60
2023-02-17T10:01:12.820Z,51.60
2023-02-17T10:03:50.667Z,45.10
2023-02-17T10:06:27.014Z,46.80
2023-02-17T10:09:04.231Z,50.90
2023-02-17T10:11:39.220Z,54.40
2023-02-17T10:14:16.877Z,47.20
2023-02-17T10:16:54.645Z,41.10
2023-02-17T10:19:31.278Z,45.80
2023-02-17T10:22:08.045Z,46.50
2023-02-17T10:24:40.156Z,40.70
2023-02-17T10:27:25.846Z,46.50
2023-02-17T10:30:10.841Z,37.80
2023-02-17T10:32:55.260Z,44.10
2023-02-17T10:35:34.040Z,43.40
2023-02-17T10:38:15.874Z,44.60
2023-02-17T10:40:51.060Z,42.10
2023-02-17T10:43:29.936Z,44.50
2023-02-17T10:46:04.109Z,48.80
2023-02-17T10:48:41.844Z,45.80
2023-02-17T10:51:18.709Z,46.30
2023-02-17T10:53:53.964Z,46.50
2023-02-17T10:56:31.272Z,44.80
2023-02-17T10:59:08.882Z,42.40
2023-02-17T11:01:42.660Z,49.40
2023-02-17T11:04:15.472Z,46.00
2023-02-17T11:06:51.168Z,53.10
2023-02-17T11:09:32.854Z,43.30
2023-02-17T11:12:11.270Z,45.00
2023-02-17T11:14:49.190Z,42.70
2023-02-17T11:17:31.070Z,46.60
2023-02-17T11:20:06.181Z,45.30
2023-02-17T11:22:41.704Z,40.90
2023-02-17T11:25:25.740Z,41.50
2023-02-17T11:27:59.541Z,44.80
2023-02-17T11:30:34.951Z,41.70
2023-02-17T11:33:22.498Z,46.40
2023-02-17T11:35:56.293Z,48.00
2023-02-17T11:38:31.734Z,39.30
2023-02-17T11:41:06.825Z,45.00
2023-02-17T11:43:39.237Z,41.10
2023-02-17T11:46:29.332Z,44.10
2023-02-17T11:49:21.596Z,44.10
2023-02-17T11:52:04.865Z,50.10
2023-02-17T11:54:48.836Z,40.60
2023-02-17T11:57:34.348Z,41.90
2023-02-17T12:00:17.272Z,42.00
2023-02-17T12:03:04.818Z,42.80
2023-02-17T12:05:47.811Z,38.90
2023-02-17T12:08:27.376Z,47.30
2023-02-17T12:11:09.179Z,47.30
2023-02-17T12:13:53.605Z,40.90
2023-02-17T12:16:36.973Z,39.50
2023-02-17T12:19:25.909Z,39.00
2023-02-17T12:22:10.190Z,43.50
2023-02-17T12:24:54.054Z,38.30
2023-02-17T12:27:39.494Z,41.50
2023-02-17T12:30:27.657Z,41.30
2023-02-17T12:33:35.396Z,41.20
2023-02-17T12:36:11.616Z,38.70
2023-02-17T12:38:49.351Z,38.30
2023-02-17T12:41:27.389Z,43.80
2023-02-17T12:44:02.940Z,44.00
2023-02-17T12:46:39.819Z,39.50
2023-02-17T12:49:18.396Z,38.70
2023-02-17T12:51:54.013Z,41.90
2023-02-17T12:54:33.894Z,46.30
2023-02-17T12:57:17.234Z,40.60
2023-02-17T12:59:51.276Z,41.40
2023-02-17T13:02:24.861Z,39.50
2023-02-17T13:05:00.500Z,43.20
2023-02-17T13:07:47.381Z,49.10
2023-02-17T13:10:30.026Z,42.30
2023-02-17T13:13:06.421Z,37.60
2023-02-17T13:15:42.821Z,38.20
2023-02-17T13:18:29.401Z,38.30
2023-02-17T13:21:16.100Z,36.40
2023-02-17T13:23:59.998Z,38.00
2023-02-17T13:26:34.761Z,39.40
2023-02-17T13:29:35.230Z,40.90
2023-02-17T13:32:10.614Z,40.20
2023-02-17T13:34:44.649Z,42.50
2023-02-17T13:37:25.141Z,40.80
2023-02-17T13:39:57.606Z,38.60
2023-02-17T13:42:42.100Z,29.50
2023-02-17T13:45:27.858Z,40.50
2023-02-17T13:48:01.603Z,36.30
2023-02-17T13:50:36.283Z,44.10
2023-02-17T13:53:24.692Z,40.30
2023-02-17T13:55:58.496Z,39.10
2023-02-17T13:58:33.098Z,38.20
2023-02-17T14:01:07.786Z,40.40
2023-02-17T14:03:48.008Z,39.70
2023-02-17T14:06:26.869Z,42.30
2023-02-17T14:08:59.664Z,37.90
2023-02-17T14:11:33.085Z,44.60
2023-02-17T14:14:07.675Z,40.80
2023-02-17T14:16:43.409Z,42.10
2023-02-17T14:19:18.316Z,37.50
2023-02-17T14:22:00.925Z,37.40
2023-02-17T14:24:36.146Z,37.70
2023-02-17T14:27:13.928Z,35.60
2023-02-17T14:29:48.552Z,33.50
2023-02-17T14:32:31.942Z,32.80
2023-02-17T14:35:20.955Z,31.30
2023-02-17T14:37:53.131Z,35.20
2023-02-17T14:40:26.205Z,31.60
2023-02-17T14:42:57.979Z,42.20
2023-02-17T14:45:29.721Z,33.90
2023-02-17T14:48:01.513Z,37.10
2023-02-17T14:50:34.458Z,34.00
2023-02-17T14:53:11.103Z,36.20
2023-02-17T14:55:47.056Z,33.30
2023-02-17T14:58:25.588Z,30.20
2023-02-17T15:00:57.676Z,32.10
2023-02-17T15:03:29.918Z,31.80
2023-02-17T15:06:02.604Z,31.10
2023-02-17T15:08:36.149Z,21.50
2023-02-17T15:11:12.549Z,31.50
2023-02-17T15:13:44.372Z,30.90
2023-02-17T15:16:16.810Z,36.10
2023-02-17T15:18:50.874Z,29.30
2023-02-17T15:21:29.919Z,31.90
2023-02-17T15:24:03.486Z,30.40
2023-02-17T15:26:35.516Z,33.10
2023-02-17T15:29:07.316Z,31.20
2023-02-17T15:31:39.406Z,27.40
2023-02-17T15:34:16.738Z,33.00
2023-02-17T15:36:48.970Z,30.20
2023-02-17T15:39:22.190Z,30.30
2023-02-17T15:41:57.259Z,32.30
2023-02-17T15:44:36.392Z,29.20
2023-02-17T15:47:13.358Z,26.00
2023-02-17T15:49:45.880Z,27.50
2023-02-17T15:52:17.646Z,27.10
2023-02-17T15:54:49.857Z,31.40
2023-02-17T15:57:25.626Z,27.60
2023-02-17T15:59:58.174Z,32.20
2023-02-17T16:02:31.411Z,32.50
2023-02-17T16:05:03.646Z,29.30
2023-02-17T16:07:36.371Z,32.90
2023-02-17T16:10:12.598Z,26.20
2023-02-17T16:12:45.010Z,29.90
2023-02-17T16:15:19.742Z,28.20
2023-02-17T16:17:52.108Z,27.90
2023-02-17T16:20:26.519Z,24.80
2023-02-17T16:22:58.415Z,27.70
2023-02-17T16:25:31.135Z,25.50
2023-02-17T16:30:36.549Z,22.20
2023-02-17T16:33:10.906Z,21.90
2023-02-17T16:35:45.041Z,25.30
2023-02-17T16:38:23.034Z,22.60
2023-02-17T16:40:55.375Z,20.60
2023-02-17T16:43:30.547Z,18.50
2023-02-17T16:46:04.903Z,18.00
2023-02-17T16:48:38.097Z,21.10
2023-02-17T16:51:10.068Z,19.00
2023-02-17T16:53:41.836Z,21.10
2023-02-17T16:56:19.674Z,18.80
2023-02-17T16:58:51.557Z,24.90
2023-02-17T17:01:24.308Z,13.10
2023-02-17T17:03:56.522Z,18.30
2023-02-17T17:06:30.627Z,16.60
2023-02-17T17:09:02.538Z,16.20
2023-02-17T17:11:34.639Z,16.40
2023-02-17T17:14:06.472Z,13.00
2023-02-17T17:16:40.068Z,15.60
2023-02-17T17:19:14.003Z,15.50
2023-02-17T17:21:45.727Z,20.60
2023-02-17T17:24:18.606Z,14.90
2023-02-17T17:26:51.806Z,20.60
2023-02-17T17:29:24.354Z,17.00
2023-02-17T17:31:56.252Z,15.00
2023-02-17T17:34:28.539Z,10.00
2023-02-17T17:37:00.562Z,13.90
2023-02-17T17:39:32.367Z,13.80
2023-02-17T17:42:04.261Z,17.90
2023-02-17T17:44:36.001Z,20.20
2023-02-17T17:47:21.334Z,13.80
2023-02-17T17:50:00.243Z,13.60
2023-02-17T17:52:32.386Z,14.60
2023-02-17T17:55:04.305Z,19.10
2023-02-17T17:57:36.155Z,15.40
2023-02-17T18:00:11.048Z,13.10
2023-02-17T18:02:47.210Z,14.10
2023-02-17T18:05:19.678Z,11.50
2023-02-17T18:07:53.354Z,11.80
2023-02-17T18:10:25.186Z,11.20
2023-02-17T18:12:57.130Z,12.90
2023-02-17T18:15:29.208Z,14.30
2023-02-17T18:18:01.009Z,12.90
2023-02-17T18:20:33.208Z,12.60
2023-02-17T18:23:05.456Z,11.50
2023-02-17T18:25:37.223Z,11.80
2023-02-17T18:28:09.019Z,10.60
2023-02-17T18:30:40.884Z,10.00
2023-02-17T18:33:14.498Z,10.40
2023-02-17T18:35:46.589Z,10.00
2023-02-17T18:38:19.549Z,9.90
2023-02-17T18:43:24.072Z,12.40
2023-02-17T18:45:55.900Z,6.80
2023-02-17T18:48:27.784Z,9.90
2023-02-17T18:50:59.535Z,13.70
2023-02-17T18:53:31.767Z,9.40
2023-02-17T18:56:03.546Z,8.80
2023-02-17T18:58:35.326Z,7.20
2023-02-17T19:01:07.777Z,7.90
2023-02-17T19:03:39.600Z,8.40
2023-02-17T19:06:16.934Z,9.60
2023-02-17T19:08:50.259Z,8.10
2023-02-17T19:11:24.234Z,10.90
2023-02-17T19:13:56.328Z,11.30
2023-02-17T19:16:31.076Z,9.40
2023-02-17T19:19:03.955Z,13.80
2023-02-17T19:21:36.553Z,13.50
2023-02-17T19:24:09.400Z,11.00
2023-02-17T19:26:41.457Z,12.00
2023-02-17T19:29:13.555Z,14.90
2023-02-17T19:31:45.884Z,16.10
2023-02-17T19:34:19.918Z,14.30
2023-02-17T19:36:52.029Z,18.60
2023-02-17T19:39:24.619Z,16.30
2023-02-17T19:44:27.251Z,10.40
2023-02-17T19:46:59.071Z,10.20
2023-02-17T19:49:31.030Z,5.90
2023-02-17T19:52:02.718Z,4.80
2023-02-17T19:54:34.504Z,6.50
2023-02-17T19:57:06.851Z,8.00
2023-02-17T19:59:39.082Z,6.30
2023-02-17T20:02:16.198Z,5.80
2023-02-17T20:04:47.992Z,6.40
2023-02-17T20:07:20.017Z,6.20
2023-02-17T20:09:52.047Z,6.50
2023-02-17T20:12:24.211Z,3.40
2023-02-17T20:14:56.353Z,3.30
2023-02-17T20:17:28.123Z,19.60
2023-02-17T20:20:00.408Z,6.40
2023-02-17T20:22:32.259Z,2.20
2023-02-17T20:25:04.568Z,4.50
2023-02-17T20:27:36.675Z,6.00
2023-02-17T20:30:10.642Z,4.40
2023-02-17T20:32:42.785Z,3.30
2023-02-17T20:35:16.499Z,3.90
2023-02-17T20:37:48.634Z,4.00
2023-02-17T20:40:21.870Z,4.00
2023-02-17T20:42:54.202Z,5.40
2023-02-17T20:45:26.261Z,3.90
2023-02-17T20:47:58.440Z,4.60
2023-02-17T20:50:30.800Z,3.80
2023-02-17T20:53:03.229Z,3.90
2023-02-17T20:55:35.324Z,4.30
2023-02-17T20:58:07.636Z,6.90
2023-02-17T21:00:40.721Z,2.70
2023-02-17T21:03:12.696Z,3.40
2023-02-17T21:05:44.838Z,8.40
2023-02-17T21:08:19.160Z,5.60
2023-02-17T21:10:51.476Z,4.70
2023-02-17T21:13:23.857Z,5.10
2023-02-17T21:15:56.063Z,6.50
2023-02-17T21:18:27.955Z,4.40
2023-02-17T21:20:59.703Z,5.20
2023-02-17T21:23:31.732Z,2.60
2023-02-17T21:26:03.783Z,4.00
2023-02-17T21:28:36.092Z,2.40
2023-02-17T21:31:08.586Z,5.00
2023-02-17T21:36:17.539Z,5.30
2023-02-17T21:38:49.877Z,3.20
2023-02-17T21:41:24.033Z,6.20
2023-02-17T21:44:13.757Z,8.20
2023-02-17T21:46:46.539Z,10.90
2023-02-17T21:49:18.512Z,6.10
2023-02-17T21:51:50.552Z,1.30
2023-02-17T21:54:23.392Z,4.50
2023-02-17T21:56:57.468Z,10.30
2023-02-17T21:59:29.500Z,8.70
2023-02-17T22:02:01.273Z,4.80
2023-02-17T22:04:33.069Z,10.10
2023-02-17T22:07:04.866Z,6.00
2023-02-17T22:09:36.897Z,12.20
2023-02-17T22:14:40.199Z,10.20
2023-02-17T22:17:11.907Z,6.00
2023-02-17T22:19:43.764Z,11.90
2023-02-17T22:22:15.520Z,4.60
2023-02-17T22:24:47.479Z,9.50
2023-02-17T22:27:19.541Z,7.10
2023-02-17T22:29:51.423Z,6.20
2023-02-17T22:32:23.125Z,4.10
2023-02-17T22:34:54.826Z,9.00
2023-02-17T22:37:26.708Z,8.90
2023-02-17T22:39:59.344Z,6.30
2023-02-17T22:45:01.680Z,16.30
2023-02-17T22:47:33.815Z,6.40
2023-02-17T22:50:06.512Z,10.70
2023-02-17T22:52:38.595Z,6.10
2023-02-17T22:55:10.583Z,12.40
2023-02-17T22:57:42.530Z,8.60
2023-02-17T23:00:16.563Z,13.20
2023-02-17T23:02:48.543Z,15.40
2023-02-17T23:05:20.917Z,13.00
2023-02-17T23:07:53.584Z,9.00
2023-02-17T23:12:55.979Z,12.80
2023-02-17T23:15:40.217Z,10.00
2023-02-17T23:18:14.732Z,12.60
2023-02-17T23:20:49.627Z,17.10
2023-02-17T23:23:24.388Z,10.40
2023-02-17T23:25:57.940Z,11.80
2023-02-17T23:28:29.734Z,11.20
2023-02-17T23:31:01.500Z,13.40
2023-02-17T23:33:33.215Z,13.40
2023-02-17T23:36:08.477Z,13.60
2023-02-17T23:38:40.441Z,10.50
2023-02-17T23:41:13.006Z,10.20
2023-02-17T23:46:15.294Z,6.90
2023-02-17T23:48:47.264Z,12.40
2023-02-17T23:51:20.167Z,12.80
2023-02-17T23:53:52.204Z,7.40
2023-02-17T23:56:26.561Z,14.90
2023-02-17T23:58:58.299Z,8.50
